createdAt,value
2023-04-18T00:00:15.608Z,48.99
2023-04-18T00:02:42.914Z,48.49
2023-04-18T00:05:10.563Z,48.58
2023-04-18T00:07:38.529Z,48.78
2023-04-18T00:10:07.241Z,48.79
2023-04-18T00:12:34.558Z,49.28
2023-04-18T00:15:03.586Z,49.21
2023-04-18T00:17:31.455Z,49.35
2023-04-18T00:19:59.132Z,49.21
2023-04-18T00:22:26.399Z,48.99
2023-04-18T00:24:53.685Z,49.08
2023-04-18T00:27:21.896Z,49.35
2023-04-18T00:29:49.214Z,49.42
2023-04-18T00:32:17.196Z,49.24
2023-04-18T00:34:44.493Z,49.18
2023-04-18T00:37:11.664Z,49.12
2023-04-18T00:39:39.001Z,49.35
2023-04-18T00:42:06.632Z,49.33
2023-04-18T00:44:33.989Z,49.35
2023-04-18T00:47:01.303Z,49.55
2023-04-18T00:49:28.729Z,49.20
2023-04-18T00:51:56.880Z,49.10
2023-04-18T00:54:26.700Z,49.64
2023-04-18T00:56:54.161Z,49.74
2023-04-18T00:59:21.683Z,49.50
2023-04-18T01:01:48.991Z,49.47
2023-04-18T01:04:17.395Z,49.43
2023-04-18T01:06:45.000Z,49.60
2023-04-18T01:09:13.604Z,49.62
2023-04-18T01:11:40.931Z,50.04
2023-04-18T01:14:08.972Z,49.66
2023-04-18T01:16:36.619Z,50.08
2023-04-18T01:19:05.210Z,49.64
2023-04-18T01:21:33.814Z,49.61
2023-04-18T01:24:08.468Z,50.09
2023-04-18T01:26:35.720Z,50.16
2023-04-18T01:29:03.132Z,50.19
2023-04-18T01:31:30.691Z,50.38
2023-04-18T01:33:58.085Z,50.01
2023-04-18T01:36:25.488Z,50.21
2023-04-18T01:38:52.843Z,50.03
2023-04-18T01:41:20.089Z,50.42
2023-04-18T01:43:47.402Z,50.23
2023-04-18T01:46:14.885Z,50.37
2023-04-18T01:48:45.278Z,50.19
2023-04-18T01:51:13.025Z,50.17
2023-04-18T01:53:40.262Z,50.05
2023-04-18T01:56:07.612Z,50.28
2023-04-18T01:58:34.891Z,50.15
2023-04-18T02:01:03.172Z,49.49
2023-04-18T02:03:30.798Z,49.46
2023-04-18T02:05:58.263Z,49.46
2023-04-18T02:08:25.714Z,50.01
2023-04-18T02:10:53.075Z,50.11
2023-04-18T02:13:20.222Z,50.26
2023-04-18T02:15:47.599Z,50.55
2023-04-18T02:18:15.787Z,50.45
2023-04-18T02:20:43.262Z,50.34
2023-04-18T02:23:10.755Z,50.09
2023-04-18T02:25:37.960Z,50.51
2023-04-18T02:28:05.394Z,50.25
2023-04-18T02:30:32.820Z,50.32
2023-04-18T02:33:00.043Z,50.08
2023-04-18T02:35:28.067Z,50.44
2023-04-18T02:37:55.596Z,50.15
2023-04-18T02:40:22.855Z,49.87
2023-04-18T02:42:50.084Z,50.36
2023-04-18T02:45:17.420Z,50.30
2023-04-18T02:47:54.458Z,50.63
2023-04-18T02:50:24.659Z,50.42
2023-04-18T02:52:52.045Z,50.40
2023-04-18T02:55:19.406Z,50.07
2023-04-18T02:57:46.638Z,50.42
2023-04-18T03:00:14.517Z,50.61
2023-04-18T03:02:41.895Z,50.68
2023-04-18T03:05:09.527Z,50.30
2023-04-18T03:07:36.752Z,50.50
2023-04-18T03:10:04.287Z,50.69
2023-04-18T03:12:31.557Z,50.88
2023-04-18T03:14:58.835Z,50.67
2023-04-18T03:17:26.578Z,50.42
2023-04-18T03:19:53.810Z,50.78
2023-04-18T03:22:21.128Z,50.59
2023-04-18T03:24:48.473Z,50.51
2023-04-18T03:27:15.879Z,50.74
2023-04-18T03:29:43.055Z,50.80
2023-04-18T03:32:10.350Z,50.56
2023-04-18T03:34:37.601Z,50.66
2023-04-18T03:37:04.840Z,50.68
2023-04-18T03:39:32.049Z,50.53
2023-04-18T03:41:59.628Z,50.91
2023-04-18T03:44:26.860Z,50.67
2023-04-18T03:46:54.243Z,50.51
2023-04-18T03:49:21.595Z,50.56
2023-04-18T03:51:48.943Z,50.79
2023-04-18T03:54:19.298Z,50.65
2023-04-18T03:56:46.851Z,50.64
2023-04-18T03:59:14.078Z,50.75
2023-04-18T04:01:41.344Z,50.59
2023-04-18T04:04:08.942Z,50.32
2023-04-18T04:06:39.138Z,50.44
2023-04-18T04:09:06.502Z,50.55
2023-04-18T04:11:33.940Z,50.55
2023-04-18T04:14:01.246Z,50.66
2023-04-18T04:16:29.063Z,50.56
2023-04-18T04:18:56.415Z,50.81
2023-04-18T04:21:23.619Z,50.86
2023-04-18T04:23:50.928Z,50.39
2023-04-18T04:26:18.186Z,50.48
2023-04-18T04:28:45.570Z,50.24
2023-04-18T04:31:12.743Z,50.65
2023-04-18T04:33:40.005Z,50.58
2023-04-18T04:36:08.272Z,51.22
2023-04-18T04:38:38.575Z,51.29
2023-04-18T04:41:06.662Z,51.20
2023-04-18T04:43:34.330Z,51.43
2023-04-18T04:46:03.950Z,50.90
2023-04-18T04:48:31.232Z,50.97
2023-04-18T04:51:00.724Z,50.61
2023-04-18T04:53:29.752Z,50.76
2023-04-18T04:55:58.430Z,50.80
2023-04-18T04:58:25.944Z,51.03
2023-04-18T05:00:53.257Z,51.14
2023-04-18T05:03:21.136Z,51.33
2023-04-18T05:05:48.985Z,51.11
2023-04-18T05:08:16.129Z,50.70
2023-04-18T05:10:43.392Z,51.47
2023-04-18T05:13:10.635Z,51.43
2023-04-18T05:15:38.002Z,51.20
2023-04-18T05:18:05.631Z,51.38
2023-04-18T05:20:33.177Z,51.27
2023-04-18T05:23:00.428Z,51.08
2023-04-18T05:25:27.647Z,51.31
2023-04-18T05:27:55.271Z,51.11
2023-04-18T05:30:22.594Z,51.24
2023-04-18T05:32:50.125Z,51.23
2023-04-18T05:35:17.531Z,51.25
2023-04-18T05:37:44.846Z,51.18
2023-04-18T05:40:13.252Z,51.48
2023-04-18T05:42:40.833Z,51.41
2023-04-18T05:45:08.702Z,51.59
2023-04-18T05:47:36.014Z,51.48
2023-04-18T05:50:03.474Z,51.44
2023-04-18T05:52:30.737Z,51.07
2023-04-18T05:54:57.959Z,51.10
2023-04-18T05:57:25.238Z,51.14
2023-04-18T05:59:52.423Z,51.47
2023-04-18T06:02:19.735Z,51.41
2023-04-18T06:04:47.266Z,51.58
2023-04-18T06:07:14.896Z,51.28
2023-04-18T06:09:42.169Z,51.48
2023-04-18T06:12:10.041Z,51.07
2023-04-18T06:14:37.274Z,51.05
2023-04-18T06:17:06.641Z,51.15
2023-04-18T06:19:33.927Z,51.12
2023-04-18T06:22:01.317Z,51.06
2023-04-18T06:24:30.179Z,51.06
2023-04-18T06:26:58.558Z,51.18
2023-04-18T06:29:26.037Z,51.23
2023-04-18T06:31:53.295Z,50.97
2023-04-18T06:34:20.625Z,50.96
2023-04-18T06:36:48.207Z,51.02
2023-04-18T06:39:15.501Z,50.98
2023-04-18T06:41:42.689Z,50.83
2023-04-18T06:44:09.851Z,50.23
2023-04-18T06:46:37.163Z,50.37
2023-04-18T06:49:04.481Z,50.12
2023-04-18T06:51:31.727Z,50.01
2023-04-18T06:53:58.922Z,50.12
2023-04-18T06:56:26.679Z,49.48
2023-04-18T06:58:54.154Z,49.31
2023-04-18T07:01:21.415Z,49.32
2023-04-18T07:03:48.826Z,48.90
2023-04-18T07:06:16.317Z,48.71
2023-04-18T07:08:43.808Z,48.78
2023-04-18T07:11:11.830Z,48.38
2023-04-18T07:13:39.045Z,48.11
2023-04-18T07:16:06.986Z,48.29
2023-04-18T07:18:37.984Z,48.31
2023-04-18T07:21:06.519Z,48.09
2023-04-18T07:23:33.945Z,47.54
2023-04-18T07:26:01.511Z,46.51
2023-04-18T07:28:29.724Z,45.54
2023-04-18T07:30:57.144Z,44.16
2023-04-18T07:33:25.268Z,44.05
2023-04-18T07:35:52.652Z,44.23
2023-04-18T07:38:20.113Z,44.94
2023-04-18T07:40:55.951Z,44.89
2023-04-18T07:43:23.566Z,44.76
2023-04-18T07:45:52.820Z,44.78
2023-04-18T07:48:21.398Z,43.63
2023-04-18T07:50:51.647Z,43.71
2023-04-18T07:53:19.265Z,43.39
2023-04-18T07:55:47.013Z,43.37
2023-04-18T07:58:14.539Z,43.21
2023-04-18T08:00:42.914Z,43.28
2023-04-18T08:03:11.233Z,43.04
2023-04-18T08:05:40.619Z,43.04
2023-04-18T08:08:10.905Z,42.11
2023-04-18T08:10:38.496Z,42.09
2023-04-18T08:13:06.760Z,42.08
2023-04-18T08:15:34.397Z,41.60
2023-04-18T08:18:02.075Z,42.18
2023-04-18T08:20:29.321Z,42.31
2023-04-18T08:23:07.691Z,41.53
2023-04-18T08:25:36.921Z,41.56
2023-04-18T08:28:04.583Z,41.75
2023-04-18T08:30:31.902Z,41.16
2023-04-18T08:33:04.208Z,41.32
2023-04-18T08:35:31.655Z,41.19
2023-04-18T08:37:59.148Z,41.24
2023-04-18T08:40:26.865Z,41.72
2023-04-18T08:42:55.578Z,41.73
2023-04-18T08:45:22.843Z,41.41
2023-04-18T08:47:50.232Z,40.32
2023-04-18T08:50:17.543Z,39.28
2023-04-18T08:52:50.831Z,39.29
2023-04-18T08:55:18.158Z,39.75
2023-04-18T08:57:45.476Z,39.96
2023-04-18T09:00:14.105Z,40.22
2023-04-18T09:02:43.685Z,39.69
2023-04-18T09:05:20.034Z,39.93
2023-04-18T09:07:49.962Z,38.18
2023-04-18T09:10:35.263Z,37.75
2023-04-18T09:13:03.977Z,37.30
2023-04-18T09:15:31.544Z,36.84
2023-04-18T09:18:09.476Z,36.75
2023-04-18T09:20:40.458Z,36.10
2023-04-18T09:23:11.149Z,35.93
2023-04-18T09:25:45.880Z,35.81
2023-04-18T09:28:25.128Z,35.28
2023-04-18T09:30:53.223Z,35.48
2023-04-18T09:33:32.372Z,34.11
2023-04-18T09:36:24.455Z,33.73
2023-04-18T09:38:56.269Z,33.95
2023-04-18T09:41:24.642Z,33.01
2023-04-18T09:44:13.539Z,33.57
2023-04-18T09:46:45.228Z,32.42
2023-04-18T09:49:14.955Z,32.50
2023-04-18T09:51:44.744Z,33.52
2023-04-18T09:54:16.769Z,31.92
2023-04-18T09:56:49.654Z,32.84
2023-04-18T09:59:34.276Z,32.69
2023-04-18T10:02:05.187Z,33.89
2023-04-18T10:04:34.342Z,33.54
2023-04-18T10:07:02.784Z,34.25
2023-04-18T10:09:34.711Z,33.97
2023-04-18T10:12:02.834Z,33.30
2023-04-18T10:14:33.500Z,33.47
2023-04-18T10:17:01.167Z,33.41
2023-04-18T10:19:29.841Z,33.18
2023-04-18T10:24:53.596Z,33.32
2023-04-18T10:27:49.277Z,32.80
2023-04-18T10:30:18.614Z,32.31
2023-04-18T10:32:48.778Z,32.75
2023-04-18T10:35:16.169Z,30.49
2023-04-18T10:37:51.535Z,30.80
2023-04-18T10:40:33.895Z,30.98
2023-04-18T10:43:01.750Z,29.74
2023-04-18T10:45:30.641Z,29.88
2023-04-18T10:48:26.409Z,31.48
2023-04-18T10:51:17.800Z,29.93
2023-04-18T10:53:59.544Z,29.44
2023-04-18T10:56:26.948Z,29.17
2023-04-18T10:58:54.803Z,29.93
2023-04-18T11:01:38.091Z,27.87
2023-04-18T11:04:13.146Z,27.90
2023-04-18T11:06:52.195Z,28.08
2023-04-18T11:09:19.351Z,27.49
2023-04-18T11:11:46.746Z,28.13
2023-04-18T11:14:14.566Z,27.08
2023-04-18T11:16:42.190Z,26.99
2023-04-18T11:19:23.732Z,25.88
2023-04-18T11:21:53.200Z,26.27
2023-04-18T11:24:24.410Z,26.66
2023-04-18T11:26:54.518Z,27.30
2023-04-18T11:29:21.876Z,27.35
2023-04-18T11:31:55.828Z,26.32
2023-04-18T11:34:33.365Z,26.05
2023-04-18T11:37:06.993Z,27.17
2023-04-18T11:39:40.797Z,25.90
2023-04-18T11:42:09.026Z,26.72
2023-04-18T11:44:36.469Z,26.73
2023-04-18T11:47:03.698Z,27.17
2023-04-18T11:49:32.673Z,26.70
2023-04-18T11:52:00.423Z,26.66
2023-04-18T11:54:45.031Z,25.62
2023-04-18T11:57:30.066Z,24.27
2023-04-18T12:00:01.298Z,23.45
2023-04-18T12:02:46.544Z,24.65
2023-04-18T12:05:31.978Z,23.51
2023-04-18T12:08:21.437Z,23.86
2023-04-18T12:10:51.200Z,24.83
2023-04-18T12:13:40.002Z,23.04
2023-04-18T12:18:35.004Z,23.38
2023-04-18T12:21:05.414Z,22.33
2023-04-18T12:23:39.531Z,24.25
2023-04-18T12:26:15.715Z,23.33
2023-04-18T12:28:46.994Z,24.29
2023-04-18T12:31:14.210Z,23.56
2023-04-18T12:33:41.526Z,22.12
2023-04-18T12:36:09.963Z,21.75
2023-04-18T12:38:37.597Z,22.50
2023-04-18T12:41:05.084Z,23.40
2023-04-18T12:43:32.214Z,23.41
2023-04-18T12:45:59.965Z,23.10
2023-04-18T12:48:28.481Z,22.89
2023-04-18T12:50:55.695Z,23.49
2023-04-18T12:53:23.118Z,23.92
2023-04-18T12:55:50.658Z,25.41
2023-04-18T12:58:18.918Z,25.65
2023-04-18T13:00:46.677Z,25.80
2023-04-18T13:03:14.014Z,25.68
2023-04-18T13:05:41.505Z,26.21
2023-04-18T13:08:17.129Z,26.47
2023-04-18T13:10:46.471Z,25.53
2023-04-18T13:13:14.259Z,26.36
2023-04-18T13:15:41.838Z,25.89
2023-04-18T13:18:09.079Z,26.13
2023-04-18T13:20:36.420Z,26.49
2023-04-18T13:23:03.770Z,26.28
2023-04-18T13:25:31.241Z,27.00
2023-04-18T13:27:58.665Z,27.54
2023-04-18T13:30:26.244Z,26.82
2023-04-18T13:32:53.758Z,26.64
2023-04-18T13:35:21.772Z,26.99
2023-04-18T13:37:49.217Z,26.62
2023-04-18T13:40:16.377Z,26.18
2023-04-18T13:42:43.588Z,25.78
2023-04-18T13:45:11.524Z,26.07
2023-04-18T13:47:38.876Z,25.62
2023-04-18T13:50:07.428Z,24.60
2023-04-18T13:52:34.637Z,24.89
2023-04-18T13:55:02.253Z,26.25
2023-04-18T13:57:29.648Z,26.42
2023-04-18T13:59:56.802Z,26.78
2023-04-18T14:02:24.125Z,26.30
2023-04-18T14:04:51.758Z,26.79
2023-04-18T14:07:18.960Z,26.28
2023-04-18T14:09:46.140Z,27.18
2023-04-18T14:12:22.824Z,28.54
2023-04-18T14:14:50.406Z,30.11
2023-04-18T14:17:17.674Z,27.70
2023-04-18T14:19:45.127Z,27.33
2023-04-18T14:22:12.315Z,27.80
2023-04-18T14:24:39.678Z,28.68
2023-04-18T14:27:07.114Z,28.69
2023-04-18T14:29:36.590Z,28.11
2023-04-18T14:32:04.019Z,28.19
2023-04-18T14:34:32.733Z,28.65
2023-04-18T14:37:01.301Z,29.38
2023-04-18T14:39:28.445Z,29.11
2023-04-18T14:41:55.669Z,29.48
2023-04-18T14:44:22.902Z,29.81
2023-04-18T14:46:50.210Z,29.71
2023-04-18T14:49:17.366Z,30.02
2023-04-18T14:51:44.543Z,30.07
2023-04-18T14:54:11.686Z,30.16
2023-04-18T14:56:38.990Z,29.81
2023-04-18T14:59:06.277Z,29.13
2023-04-18T15:01:33.495Z,28.95
2023-04-18T15:04:00.988Z,28.89
2023-04-18T15:06:28.312Z,28.63
2023-04-18T15:08:55.445Z,28.45
2023-04-18T15:11:22.655Z,28.62
2023-04-18T15:13:50.047Z,28.20
2023-04-18T15:16:17.281Z,28.68
2023-04-18T15:18:44.810Z,28.38
2023-04-18T15:21:12.196Z,28.81
2023-04-18T15:23:39.341Z,29.22
2023-04-18T15:26:06.641Z,28.95
2023-04-18T15:28:33.828Z,29.07
2023-04-18T15:31:01.021Z,29.34
2023-04-18T15:33:28.403Z,28.76
2023-04-18T15:35:56.145Z,28.77
2023-04-18T15:38:23.496Z,29.09
2023-04-18T15:40:50.689Z,30.08
2023-04-18T15:43:17.903Z,31.70
2023-04-18T15:45:45.122Z,33.32
2023-04-18T15:48:12.367Z,31.96
2023-04-18T15:50:39.880Z,30.99
2023-04-18T15:53:07.048Z,31.02
2023-04-18T15:55:34.445Z,30.05
2023-04-18T15:58:01.627Z,29.61
2023-04-18T16:00:28.884Z,29.92
2023-04-18T16:02:56.267Z,30.31
2023-04-18T16:05:23.650Z,30.74
2023-04-18T16:07:50.992Z,30.92
2023-04-18T16:10:18.161Z,30.79
2023-04-18T16:12:45.875Z,30.57
2023-04-18T16:15:13.559Z,30.60
2023-04-18T16:17:40.759Z,30.85
2023-04-18T16:20:08.646Z,31.20
2023-04-18T16:22:36.544Z,31.03
2023-04-18T16:25:05.103Z,31.05
2023-04-18T16:27:33.043Z,31.11
2023-04-18T16:30:00.654Z,31.38
2023-04-18T16:32:27.907Z,31.38
2023-04-18T16:34:55.084Z,31.60
2023-04-18T16:37:22.201Z,31.65
2023-04-18T16:39:49.735Z,31.78
2023-04-18T16:42:16.959Z,31.88
2023-04-18T16:44:44.111Z,32.05
2023-04-18T16:47:11.382Z,32.49
2023-04-18T16:49:38.634Z,32.72
2023-04-18T16:52:05.828Z,33.35
2023-04-18T16:54:32.999Z,33.14
2023-04-18T16:57:00.254Z,33.42
2023-04-18T16:59:27.888Z,33.49
2023-04-18T17:01:55.808Z,33.19
2023-04-18T17:04:23.027Z,32.99
2023-04-18T17:06:52.104Z,33.22
2023-04-18T17:09:19.662Z,33.49
2023-04-18T17:11:46.880Z,33.46
2023-04-18T17:14:14.906Z,33.66
2023-04-18T17:16:42.999Z,34.21
2023-04-18T17:19:10.949Z,34.59
2023-04-18T17:21:38.808Z,35.83
2023-04-18T17:24:06.436Z,36.14
2023-04-18T17:26:36.396Z,36.57
2023-04-18T17:29:03.928Z,36.41
2023-04-18T17:31:32.163Z,36.13
2023-04-18T17:34:00.424Z,35.98
2023-04-18T17:36:28.278Z,36.27
2023-04-18T17:38:56.306Z,36.31
2023-04-18T17:41:23.530Z,36.44
2023-04-18T17:43:51.260Z,36.87
2023-04-18T17:46:18.753Z,36.85
2023-04-18T17:48:46.356Z,37.14
2023-04-18T17:51:13.869Z,37.17
2023-04-18T17:53:41.197Z,37.47
2023-04-18T17:56:09.676Z,38.22
2023-04-18T17:58:37.293Z,38.93
2023-04-18T18:01:13.388Z,39.28
2023-04-18T18:03:41.312Z,39.41
2023-04-18T18:06:10.942Z,39.83
2023-04-18T18:08:38.626Z,39.81
2023-04-18T18:11:06.120Z,40.10
2023-04-18T18:13:34.274Z,40.20
2023-04-18T18:16:03.147Z,39.96
2023-04-18T18:18:30.343Z,40.34
2023-04-18T18:20:59.620Z,40.90
2023-04-18T18:23:27.821Z,41.50
2023-04-18T18:25:55.254Z,41.54
2023-04-18T18:28:23.068Z,41.00
2023-04-18T18:30:50.466Z,41.16
2023-04-18T18:33:18.087Z,41.57
2023-04-18T18:35:45.806Z,41.52
2023-04-18T18:38:13.026Z,42.03
2023-04-18T18:40:40.150Z,41.88
2023-04-18T18:43:08.288Z,41.98
2023-04-18T18:45:35.413Z,41.90
2023-04-18T18:48:02.869Z,42.04
2023-04-18T18:50:30.516Z,42.06
2023-04-18T18:52:59.489Z,42.43
2023-04-18T18:55:27.228Z,42.52
2023-04-18T18:57:54.624Z,42.55
2023-04-18T19:00:22.182Z,42.58
2023-04-18T19:02:49.510Z,42.52
2023-04-18T19:05:16.894Z,42.80
2023-04-18T19:07:44.287Z,42.93
2023-04-18T19:10:11.743Z,42.87
2023-04-18T19:12:39.140Z,42.99
2023-04-18T19:15:07.314Z,42.35
2023-04-18T19:17:34.668Z,42.44
2023-04-18T19:20:03.477Z,42.62
2023-04-18T19:22:31.310Z,42.61
2023-04-18T19:25:01.437Z,42.65
2023-04-18T19:27:28.657Z,43.15
2023-04-18T19:29:56.742Z,43.29
2023-04-18T19:32:24.388Z,42.91
2023-04-18T19:34:52.903Z,43.42
2023-04-18T19:37:20.533Z,43.10
2023-04-18T19:39:52.299Z,43.26
2023-04-18T19:42:19.522Z,43.28
2023-04-18T19:44:46.936Z,43.47
2023-04-18T19:47:14.113Z,44.14
2023-04-18T19:49:41.281Z,43.97
2023-04-18T19:52:08.486Z,43.93
2023-04-18T19:54:35.675Z,44.31
2023-04-18T19:57:02.900Z,44.00
2023-04-18T19:59:30.493Z,44.21
2023-04-18T20:02:00.535Z,44.29
2023-04-18T20:04:29.890Z,44.72
2023-04-18T20:06:57.045Z,45.00
2023-04-18T20:09:24.909Z,44.82
2023-04-18T20:11:52.057Z,45.01
2023-04-18T20:14:19.437Z,45.17
2023-04-18T20:16:47.757Z,44.67
2023-04-18T20:19:18.014Z,44.19
2023-04-18T20:21:45.882Z,44.09
2023-04-18T20:24:13.438Z,44.25
2023-04-18T20:26:41.132Z,44.59
2023-04-18T20:29:08.787Z,44.73
2023-04-18T20:31:35.966Z,45.09
2023-04-18T20:34:03.094Z,45.14
2023-04-18T20:36:30.333Z,45.42
2023-04-18T20:38:57.562Z,45.40
2023-04-18T20:41:25.131Z,45.51
2023-04-18T20:43:52.600Z,45.58
2023-04-18T20:46:20.363Z,45.64
2023-04-18T20:48:47.574Z,45.62
2023-04-18T20:51:14.859Z,45.89
2023-04-18T20:53:42.191Z,45.45
2023-04-18T20:56:09.319Z,45.22
2023-04-18T20:58:36.485Z,45.34
2023-04-18T21:01:03.681Z,45.77
2023-04-18T21:03:31.034Z,45.51
2023-04-18T21:05:58.371Z,45.88
2023-04-18T21:08:26.129Z,45.70
2023-04-18T21:10:53.670Z,45.96
2023-04-18T21:13:20.875Z,46.12
2023-04-18T21:15:48.017Z,46.26
2023-04-18T21:18:15.344Z,46.20
2023-04-18T21:20:42.564Z,46.20
2023-04-18T21:23:09.879Z,46.06
2023-04-18T21:25:37.281Z,46.12
2023-04-18T21:28:04.870Z,46.44
2023-04-18T21:30:32.107Z,46.46
2023-04-18T21:32:59.382Z,46.21
2023-04-18T21:35:26.655Z,46.21
2023-04-18T21:37:53.861Z,46.39
2023-04-18T21:40:21.184Z,46.36
2023-04-18T21:42:49.902Z,46.29
2023-04-18T21:45:18.281Z,46.60
2023-04-18T21:47:45.601Z,46.82
2023-04-18T21:50:12.838Z,46.75
2023-04-18T21:52:40.318Z,46.87
2023-04-18T21:55:08.279Z,47.03
2023-04-18T21:57:35.882Z,47.05
2023-04-18T22:00:04.040Z,46.76
2023-04-18T22:02:31.604Z,46.93
2023-04-18T22:04:58.941Z,47.28
2023-04-18T22:07:26.169Z,47.29
2023-04-18T22:09:53.342Z,47.50
2023-04-18T22:12:20.440Z,47.76
2023-04-18T22:14:47.552Z,47.67
2023-04-18T22:17:15.038Z,47.75
2023-04-18T22:19:42.245Z,47.87
2023-04-18T22:22:09.528Z,47.57
2023-04-18T22:24:36.676Z,48.02
2023-04-18T22:27:03.944Z,47.81
2023-04-18T22:29:31.134Z,47.95
2023-04-18T22:31:58.255Z,47.88
2023-04-18T22:34:25.424Z,47.97
2023-04-18T22:36:52.640Z,47.92
2023-04-18T22:39:19.943Z,48.07
2023-04-18T22:41:47.303Z,48.21
2023-04-18T22:44:14.801Z,47.93
2023-04-18T22:46:42.658Z,47.87
2023-04-18T22:49:10.163Z,47.88
2023-04-18T22:51:37.297Z,47.71
2023-04-18T22:54:04.840Z,47.69
2023-04-18T22:56:32.006Z,47.66
2023-04-18T22:58:59.163Z,47.63
2023-04-18T23:01:26.556Z,47.63
2023-04-18T23:03:53.916Z,47.51
2023-04-18T23:06:21.246Z,47.61
2023-04-18T23:08:48.546Z,47.65
2023-04-18T23:11:15.661Z,47.56
2023-04-18T23:13:42.857Z,47.81
2023-04-18T23:16:10.124Z,47.82
2023-04-18T23:18:37.310Z,48.05
2023-04-18T23:21:04.573Z,47.97
2023-04-18T23:23:31.979Z,47.97
2023-04-18T23:25:59.173Z,47.63
2023-04-18T23:28:26.388Z,47.92
2023-04-18T23:30:53.568Z,48.14
2023-04-18T23:33:20.850Z,48.12
2023-04-18T23:35:47.962Z,48.03
2023-04-18T23:38:15.213Z,48.05
2023-04-18T23:40:42.653Z,48.06
2023-04-18T23:43:09.862Z,48.43
2023-04-18T23:45:37.011Z,48.39
2023-04-18T23:48:04.421Z,48.36
2023-04-18T23:50:31.559Z,48.50
2023-04-18T23:52:58.822Z,48.51
2023-04-18T23:55:26.159Z,48.25
2023-04-18T23:57:53.527Z,48.56
